AU-0108 weather

Wheeler Drome
Western Australia, Australia

Public forecast

Using degrees Celsius for public forecast. Weather courtesy of forecast.io.

METAR (pilot weather report)

Closest report is Perth Jandakot Airport, 41.4 nm (76.7 km) N. Retrieved 2019/05/19 11:30 UTC (19 minutes ago):

YPJT 191130Z AUTO 09003KT 9999 // NCD 10/05 Q1014 RF00.0/000.0

TAF (pilot weather forecast)

Closest forecast is Perth Jandakot Airport, 41.4 nm (76.7 km) N. Retrieved 2019/05/19 06:00 UTC (6 hours ago):

TAF YPJT 190446Z 1906/1924 36010KT CAVOK FM191600 36008KT 9999 -SHRA FEW020 BKN040 FM191900 31008KT 9999 -SHRA BKN020 TEMPO 1919/1924 3000 SHRA BKN008